Rola Do Mar — CSKS — position and weather

sailwx.info

Track history (hours):
 
Tides and Currents Weather Stations Pressure Air Temp Water Temp Dewpoint Dewpoint Depression Visibility Wind Speed Wind Dir Waves Ship Positions

Rola Do Mar

Last reported at 2017-Nov-18 01:00 UTC. Time now 2017-Nov-18 01:09 UTC.
Position N 38°31' W 008°53'.

Length 70 m; draft 2.7 m.

Type: Passenger vessel. MMSI: 263701890.

Date/timePositionNaut miles runAvg speedWind from/ knotsBaromVisibWave heightAir tempDewpointWater temp
2017-Nov-18 01:00N 38°31' W 008°53'0 0.0
2017-Nov-18 00:27N 38°31' W 008°53'0 0.0
2017-Nov-18 00:00N 38°31' W 008°53'0 0.0
2017-Nov-17 23:30N 38°31' W 008°53'1 1.8
2017-Nov-17 23:00N 38°30' W 008°53'3 5.2
2017-Nov-17 22:30N 38°28' W 008°52'3 6.9
2017-Nov-17 22:00N 38°31' W 008°53'1 2.9
2017-Nov-17 21:30N 38°30' W 008°53'1 2.7
2017-Nov-17 21:00N 38°29' W 008°52'3 5.3
2017-Nov-17 20:30N 38°31' W 008°53'3 6.7
2017-Nov-17 20:00N 38°28' W 008°52'3 6.8
2017-Nov-17 19:30N 38°31' W 008°53'3 6.7
2017-Nov-17 19:00N 38°28' W 008°52'3 6.8
2017-Nov-17 18:30N 38°31' W 008°53'3 6.7
2017-Nov-17 18:00N 38°28' W 008°52'3 6.7
2017-Nov-17 17:30N 38°31' W 008°53'3 6.7
2017-Nov-17 17:00N 38°28' W 008°52'3 6.8
2017-Nov-17 16:30N 38°31' W 008°53'3 6.7
2017-Nov-17 16:00N 38°28' W 008°52'3 6.7
2017-Nov-17 15:30N 38°31' W 008°53'3 6.7
2017-Nov-17 15:00N 38°28' W 008°52'3 6.7
2017-Nov-17 14:30N 38°31' W 008°53'3 6.7
2017-Nov-17 14:00N 38°28' W 008°52'3 6.8
2017-Nov-17 13:30N 38°31' W 008°53'3 6.8
2017-Nov-17 13:00N 38°28' W 008°52'3 6.7
2017-Nov-17 12:30N 38°31' W 008°53'3 6.7
2017-Nov-17 12:00N 38°28' W 008°52'3 6.7
2017-Nov-17 11:30N 38°31' W 008°53'3 6.7
2017-Nov-17 11:00N 38°28' W 008°52'3 6.7
2017-Nov-17 10:30N 38°31' W 008°53'3 6.7
2017-Nov-17 10:00N 38°28' W 008°52'3 6.8
2017-Nov-17 09:30N 38°31' W 008°53'3 6.7
2017-Nov-17 09:00N 38°28' W 008°52'3 6.7
2017-Nov-17 08:30N 38°31' W 008°53'3 6.6
2017-Nov-17 08:00N 38°28' W 008°52'3 6.9
2017-Nov-17 07:30N 38°31' W 008°53'0 0.0
2017-Nov-17 07:00N 38°31' W 008°53'0 0.0
2017-Nov-17 06:30N 38°31' W 008°53'0 0.0
2017-Nov-17 06:00N 38°31' W 008°53'0 0.0
2017-Nov-17 05:30N 38°31' W 008°53'0 0.0
2017-Nov-17 05:00N 38°31' W 008°53'0 0.0
2017-Nov-17 04:30N 38°31' W 008°53'0 0.0
2017-Nov-17 04:00N 38°31' W 008°53'0 0.0
2017-Nov-17 03:30N 38°31' W 008°53'0 0.0
2017-Nov-17 03:00N 38°31' W 008°53'0 0.0
2017-Nov-17 02:30N 38°31' W 008°53'0 0.0
2017-Nov-17 02:00N 38°31' W 008°53'0 0.0
2017-Nov-17 01:24N 38°31' W 008°53'0 0.1
2017-Nov-17 01:00N 38°31' W 008°53'0 0.0
2017-Nov-17 00:27N 38°31' W 008°53'0 0.0
2017-Nov-16 23:54N 38°31' W 008°53'0 0.0
2017-Nov-16 23:27N 38°31' W 008°53'0 0.4
2017-Nov-16 23:00N 38°31' W 008°53'3 6.3
2017-Nov-16 22:30N 38°28' W 008°52'3 6.8
2017-Nov-16 22:00N 38°31' W 008°53'2 3.3
2017-Nov-16 21:31N 38°30' W 008°53'1 2.6
2017-Nov-16 21:00N 38°29' W 008°52'3 5.6
2017-Nov-16 20:30N 38°31' W 008°53'3 6.9
2017-Nov-16 20:00N 38°28' W 008°52'3 6.7
2017-Nov-16 19:30N 38°31' W 008°53'3 6.7
2017-Nov-16 19:00N 38°28' W 008°52'3 6.7
2017-Nov-16 18:30N 38°31' W 008°53'3 6.7
2017-Nov-16 18:00N 38°28' W 008°52'3 6.7
2017-Nov-16 17:30N 38°31' W 008°53'3 6.7
2017-Nov-16 17:00N 38°28' W 008°52'3 6.7
2017-Nov-16 16:30N 38°31' W 008°53'3 6.6
2017-Nov-16 16:00N 38°28' W 008°52'3 6.9
2017-Nov-16 15:30N 38°31' W 008°53'3 6.7
2017-Nov-16 15:00N 38°28' W 008°52'3 6.7
2017-Nov-16 14:30N 38°31' W 008°53'3 6.6
2017-Nov-16 14:00N 38°28' W 008°52'3 5.6
2017-Nov-16 13:24N 38°31' W 008°53'3 8.6
2017-Nov-16 13:00N 38°28' W 008°52'3 6.8
2017-Nov-16 12:31N 38°31' W 008°53'3 6.6
2017-Nov-16 12:00N 38°28' W 008°52'3 6.9
2017-Nov-16 11:30N 38°31' W 008°53'3 6.7
2017-Nov-16 11:00N 38°28' W 008°52'3 6.8
2017-Nov-16 10:30N 38°31' W 008°53'3 6.7
2017-Nov-16 10:00N 38°28' W 008°52'3 6.8
2017-Nov-16 09:30N 38°31' W 008°53'3 6.7
2017-Nov-16 09:00N 38°28' W 008°52'3 6.7
2017-Nov-16 08:30N 38°31' W 008°53'3 6.7
2017-Nov-16 08:00N 38°28' W 008°52'3 6.7
2017-Nov-16 07:30N 38°31' W 008°53'0 0.0
2017-Nov-16 07:00N 38°31' W 008°53'0 0.0
2017-Nov-16 06:28N 38°31' W 008°53'0 0.0
2017-Nov-16 05:58N 38°31' W 008°53'0 0.0
2017-Nov-16 05:28N 38°31' W 008°53'0 0.0
2017-Nov-16 04:58N 38°31' W 008°53'0 0.0
2017-Nov-16 04:28N 38°31' W 008°53'0 0.0
2017-Nov-16 03:58N 38°31' W 008°53'0 0.0
2017-Nov-16 03:28N 38°31' W 008°53'0 0.0
2017-Nov-16 02:58N 38°31' W 008°53'0 0.0
2017-Nov-16 02:28N 38°31' W 008°53'0 0.0
2017-Nov-16 01:58N 38°31' W 008°53'0 0.0
2017-Nov-16 01:28N 38°31' W 008°53'0 0.0
2017-Nov-16 00:58N 38°31' W 008°53'0 0.0
2017-Nov-16 00:28N 38°31' W 008°53'0 0.0
2017-Nov-15 23:52N 38°31' W 008°53'0 0.0
2017-Nov-15 23:28N 38°31' W 008°53'0 0.7
2017-Nov-15 23:00N 38°31' W 008°53'3 6.2
2017-Nov-15 22:30N 38°28' W 008°52'3 6.7
2017-Nov-15 22:00N 38°31' W 008°53'2 3.0
2017-Nov-15 21:30N 38°30' W 008°53'2 3.4
2017-Nov-15 21:00N 38°28' W 008°52'3 5.5
2017-Nov-15 20:27N 38°31' W 008°53'3 7.4
2017-Nov-15 20:00N 38°28' W 008°52'3 6.7
2017-Nov-15 19:30N 38°31' W 008°53'3 6.8
2017-Nov-15 19:00N 38°28' W 008°52'3 6.8
2017-Nov-15 18:30N 38°31' W 008°53'3 6.7
2017-Nov-15 18:00N 38°28' W 008°52'3 6.8
2017-Nov-15 17:30N 38°31' W 008°53'3 6.7
2017-Nov-15 17:00N 38°28' W 008°52'3 6.8
2017-Nov-15 16:30N 38°31' W 008°53'3 6.1
2017-Nov-15 15:57N 38°28' W 008°52'3 7.6
2017-Nov-15 15:30N 38°31' W 008°53'3 6.0
2017-Nov-15 14:57N 38°28' W 008°52'3 7.5
2017-Nov-15 14:30N 38°31' W 008°53'3 5.8
2017-Nov-15 13:55N 38°28' W 008°52'3 7.9
2017-Nov-15 13:30N 38°31' W 008°53'3 6.6
2017-Nov-15 12:59N 38°28' W 008°52'3 7.0
2017-Nov-15 12:30N 38°31' W 008°53'3 6.7
2017-Nov-15 12:00N 38°28' W 008°52'3 6.8
2017-Nov-15 11:30N 38°31' W 008°53'3 6.7
2017-Nov-15 11:00N 38°28' W 008°52'3 6.8
2017-Nov-15 10:30N 38°31' W 008°53'3 6.7
2017-Nov-15 10:00N 38°28' W 008°52'3 6.7
2017-Nov-15 09:30N 38°31' W 008°53'3 6.7
2017-Nov-15 09:00N 38°28' W 008°52'3 6.8
2017-Nov-15 08:30N 38°31' W 008°53'3 6.7
2017-Nov-15 08:00N 38°28' W 008°52'3 6.7
2017-Nov-15 07:30N 38°31' W 008°53'0 0.0
2017-Nov-15 06:59N 38°31' W 008°53'0 0.0
2017-Nov-15 06:29N 38°31' W 008°53'0 0.0
2017-Nov-15 05:59N 38°31' W 008°53'0 0.0
2017-Nov-15 05:26N 38°31' W 008°53'0 0.0
2017-Nov-15 04:59N 38°31' W 008°53'0 0.0
2017-Nov-15 04:29N 38°31' W 008°53'0 0.0
2017-Nov-15 03:59N 38°31' W 008°53'0 0.0
2017-Nov-15 03:29N 38°31' W 008°53'0 0.0
2017-Nov-15 02:59N 38°31' W 008°53'0 0.0
2017-Nov-15 02:29N 38°31' W 008°53'0 0.0
2017-Nov-15 01:59N 38°31' W 008°53'0 0.0
2017-Nov-15 01:29N 38°31' W 008°53'0 0.0
2017-Nov-15 00:59N 38°31' W 008°53'0 0.0
2017-Nov-15 00:29N 38°31' W 008°53'0 0.0
2017-Nov-14 23:59N 38°31' W 008°53'0 0.0
2017-Nov-14 23:29N 38°31' W 008°53'1 1.5
2017-Nov-14 23:00N 38°31' W 008°53'3 5.5
2017-Nov-14 22:30N 38°28' W 008°52'3 6.7
2017-Nov-14 22:00N 38°31' W 008°53'1 2.9
2017-Nov-14 21:31N 38°30' W 008°53'2 3.4
2017-Nov-14 21:00N 38°28' W 008°52'3 6.0
2017-Nov-14 20:30N 38°31' W 008°53'3 6.6
2017-Nov-14 20:00N 38°28' W 008°52'3 6.9
2017-Nov-14 19:30N 38°31' W 008°53'3 6.5
2017-Nov-14 18:59N 38°28' W 008°52'3 7.0
2017-Nov-14 18:30N 38°31' W 008°53'3 6.7
2017-Nov-14 18:00N 38°28' W 008°52'3 6.7
2017-Nov-14 17:31N 38°31' W 008°53'3 6.6
2017-Nov-14 17:00N 38°28' W 008°52'3 5.2
2017-Nov-14 16:21N 38°31' W 008°53'3 9.4
2017-Nov-14 16:00N 38°28' W 008°52'3 5.6
2017-Nov-14 15:24N 38°31' W 008°53'3 8.3
2017-Nov-14 14:59N 38°28' W 008°52'3 6.5
2017-Nov-14 14:28N 38°31' W 008°53'3 7.1
2017-Nov-14 13:59N 38°28' W 008°52'3 7.0
2017-Nov-14 13:30N 38°31' W 008°53'3 6.2
2017-Nov-14 12:58N 38°28' W 008°52'3 7.4
2017-Nov-14 12:30N 38°31' W 008°53'3 6.6
2017-Nov-14 12:00N 38°28' W 008°52'3 6.9
2017-Nov-14 11:30N 38°31' W 008°53'3 6.6
2017-Nov-14 11:00N 38°28' W 008°52'3 6.9
2017-Nov-14 10:30N 38°31' W 008°53'3 6.6
2017-Nov-14 10:00N 38°28' W 008°52'3 6.9
2017-Nov-14 09:30N 38°31' W 008°53'3 6.6
2017-Nov-14 09:00N 38°28' W 008°52'3 6.9
2017-Nov-14 08:30N 38°31' W 008°53'3 6.6
2017-Nov-14 08:00N 38°28' W 008°52'3 6.8
2017-Nov-14 07:30N 38°31' W 008°53'0 0.0
2017-Nov-14 06:58N 38°31' W 008°53'0 0.0
2017-Nov-14 06:28N 38°31' W 008°53'0 0.0
2017-Nov-14 05:58N 38°31' W 008°53'0 0.0
2017-Nov-14 05:28N 38°31' W 008°53'0 0.0
2017-Nov-14 04:58N 38°31' W 008°53'0 0.0
2017-Nov-14 04:28N 38°31' W 008°53'0 0.0
2017-Nov-14 03:58N 38°31' W 008°53'0 0.0
2017-Nov-14 03:28N 38°31' W 008°53'0 0.0
2017-Nov-14 02:58N 38°31' W 008°53'0 0.0
2017-Nov-14 02:28N 38°31' W 008°53'0 0.0
2017-Nov-14 01:58N 38°31' W 008°53'0 0.0
2017-Nov-14 01:28N 38°31' W 008°53'0 0.0
2017-Nov-14 00:58N 38°31' W 008°53'0 0.0
2017-Nov-14 00:25N 38°31' W 008°53'0 0.0
2017-Nov-13 23:58N 38°31' W 008°53'0 0.0
2017-Nov-13 23:28N 38°31' W 008°53'1 1.2
2017-Nov-13 23:00N 38°31' W 008°53'3 5.8
2017-Nov-13 22:30N 38°28' W 008°52'3 6.7
2017-Nov-13 22:00N 38°31' W 008°53'0 0.0
2017-Nov-12 23:03N 38°31' W 008°53'1 7.9
2017-Nov-12 22:59N 38°31' W 008°53'3 5.4
2017-Nov-12 22:27N 38°28' W 008°52'3 6.8
2017-Nov-12 21:57N 38°31' W 008°53'1 3.3
2017-Nov-12 21:30N 38°30' W 008°53'2 3.8
2017-Nov-12 21:00N 38°28' W 008°52'3 6.1
2017-Nov-12 20:29N 38°31' W 008°53'3 7.1
2017-Nov-12 20:00N 38°28' W 008°52'3 6.5
2017-Nov-12 19:29N 38°31' W 008°53'3 6.9
2017-Nov-12 19:00N 38°28' W 008°52'3 5.6
2017-Nov-12 18:27N 38°31' W 008°53'3 6.7
2017-Nov-12 17:59N 38°28' W 008°52'3 6.9
2017-Nov-12 17:29N 38°31' W 008°53'3 6.9
2017-Nov-12 17:00N 38°28' W 008°52'3 6.8
2017-Nov-12 16:30N 38°31' W 008°53'3 6.7
2017-Nov-12 16:00N 38°28' W 008°52'3 6.4
2017-Nov-12 15:29N 38°31' W 008°53'3 7.0
2017-Nov-12 15:00N 38°28' W 008°52'3 5.2
2017-Nov-12 14:21N 38°31' W 008°53'3 9.5
2017-Nov-12 14:00N 38°28' W 008°52'3 5.3
2017-Nov-12 13:22N 38°31' W 008°53'3 8.7
2017-Nov-12 12:59N 38°28' W 008°52'3 6.7
2017-Nov-12 12:29N 38°31' W 008°53'3 6.9
2017-Nov-12 12:00N 38°28' W 008°52'3 5.3
2017-Nov-12 11:22N 38°31' W 008°53'3 9.3
2017-Nov-12 11:00N 38°28' W 008°52'3 5.0
2017-Nov-12 10:21N 38°31' W 008°53'3 9.3
2017-Nov-12 10:00N 38°28' W 008°52'3 4.8
2017-Nov-12 09:21N 38°31' W 008°53'3 9.0
2017-Nov-12 09:00N 38°28' W 008°52'3 5.6
2017-Nov-12 08:24N 38°31' W 008°53'3 6.0
2017-Nov-12 07:50N 38°28' W 008°52'3 9.1
2017-Nov-12 07:28N 38°31' W 008°53'0 0.0
2017-Nov-12 06:58N 38°31' W 008°53'0 0.0
2017-Nov-12 06:28N 38°31' W 008°53'0 0.0
2017-Nov-12 05:58N 38°31' W 008°53'0 0.0
2017-Nov-12 05:28N 38°31' W 008°53'0 0.0
2017-Nov-12 04:58N 38°31' W 008°53'0 0.0
2017-Nov-12 04:28N 38°31' W 008°53'0 0.0
2017-Nov-12 03:58N 38°31' W 008°53'0 0.0
2017-Nov-12 03:28N 38°31' W 008°53'0 0.0
2017-Nov-12 02:58N 38°31' W 008°53'0 0.0
2017-Nov-12 02:28N 38°31' W 008°53'0 0.0
2017-Nov-12 01:58N 38°31' W 008°53'0 0.0
2017-Nov-12 01:28N 38°31' W 008°53'0 0.0
2017-Nov-12 00:49N 38°31' W 008°53'0 0.0
2017-Nov-12 00:28N 38°31' W 008°53'0 0.0
2017-Nov-11 23:58N 38°31' W 008°53'0 0.0
2017-Nov-11 23:28N 38°31' W 008°53'0 0.0
2017-Nov-11 23:00N 38°31' W 008°53'3 6.7
2017-Nov-11 22:30N 38°28' W 008°52'3 6.7
2017-Nov-11 22:00N 38°31' W 008°53'1 2.2
2017-Nov-11 21:30N 38°30' W 008°53'2 4.6
2017-Nov-11 21:00N 38°28' W 008°52'3 6.5
2017-Nov-11 20:30N 38°31' W 008°53'3 6.7
2017-Nov-11 20:00N 38°28' W 008°52'3 6.7
2017-Nov-11 19:30N 38°31' W 008°53'3 6.7
2017-Nov-11 19:00N 38°28' W 008°52'3 6.7
2017-Nov-11 18:30N 38°31' W 008°53'3 6.7
2017-Nov-11 18:00N 38°28' W 008°52'3 6.7
2017-Nov-11 17:30N 38°31' W 008°53'3 6.7
2017-Nov-11 17:00N 38°28' W 008°52'3 6.7
2017-Nov-11 16:30N 38°31' W 008°53'3 6.8
2017-Nov-11 16:00N 38°28' W 008°52'3 6.8
2017-Nov-11 15:31N 38°31' W 008°53'3 6.7
2017-Nov-11 15:00N 38°28' W 008°52'3 6.7
2017-Nov-11 14:30N 38°31' W 008°53'3 6.6
2017-Nov-11 14:00N 38°28' W 008°52'3 6.9
2017-Nov-11 13:30N 38°31' W 008°53'3 6.5
2017-Nov-11 12:59N 38°28' W 008°52'3 7.0
2017-Nov-11 12:30N 38°31' W 008°53'3 6.5
2017-Nov-11 11:59N 38°28' W 008°52'3 7.0
2017-Nov-11 11:30N 38°31' W 008°53'3 6.7
2017-Nov-11 11:00N 38°28' W 008°52'3 6.8
2017-Nov-11 10:30N 38°31' W 008°53'3 6.8
2017-Nov-11 10:00N 38°28' W 008°52'3 6.7
2017-Nov-11 09:30N 38°31' W 008°53'3 6.7
2017-Nov-11 09:00N 38°28' W 008°52'3 6.7
2017-Nov-11 08:30N 38°31' W 008°53'3 6.7
2017-Nov-11 08:00N 38°28' W 008°52'3 6.8
2017-Nov-11 07:31N 38°31' W 008°53'0 0.0
2017-Nov-11 07:00N 38°31' W 008°53'0 0.0
2017-Nov-11 06:30N 38°31' W 008°53'0 0.0
2017-Nov-11 06:01N 38°31' W 008°53'0 0.0
2017-Nov-11 05:30N 38°31' W 008°53'0 0.0
2017-Nov-11 05:00N 38°31' W 008°53'0 0.0
2017-Nov-11 04:31N 38°31' W 008°53'0 0.0
2017-Nov-11 04:01N 38°31' W 008°53'0 0.0
2017-Nov-11 03:31N 38°31' W 008°53'0 0.0
2017-Nov-11 03:00N 38°31' W 008°53'0 0.0
2017-Nov-11 02:30N 38°31' W 008°53'0 0.0
2017-Nov-11 02:01N 38°31' W 008°53'0 0.0
2017-Nov-11 01:30N 38°31' W 008°53'0 0.0
2017-Nov-11 00:59N 38°31' W 008°53'0 0.0
2017-Nov-11 00:31N 38°31' W 008°53'0 0.0
2017-Nov-11 00:00N 38°31' W 008°53'0 0.0
2017-Nov-10 23:30N 38°31' W 008°53'0 0.2
2017-Nov-10 23:01N 38°31' W 008°53'3 6.4
2017-Nov-10 22:30N 38°28' W 008°52'3 6.7
2017-Nov-10 22:01N 38°31' W 008°53'1 2.0
2017-Nov-10 21:31N 38°30' W 008°53'2 4.8
2017-Nov-10 21:00N 38°28' W 008°52'3 6.1
2017-Nov-10 20:29N 38°31' W 008°53'3 7.1
2017-Nov-10 20:01N 38°28' W 008°52'3 6.7
2017-Nov-10 19:30N 38°31' W 008°53'3 6.7
2017-Nov-10 19:00N 38°28' W 008°52'3 6.5
2017-Nov-10 18:29N 38°31' W 008°53'3 6.6
2017-Nov-10 17:59N 38°28' W 008°52'3 7.2
2017-Nov-10 17:31N 38°31' W 008°53'3 6.3
2017-Nov-10 16:59N 38°28' W 008°52'3 7.2
2017-Nov-10 16:30N 38°31' W 008°53'3 6.7
2017-Nov-10 16:00N 38°28' W 008°52'3 6.8
2017-Nov-10 15:30N 38°31' W 008°53'3 6.6
2017-Nov-10 14:59N 38°28' W 008°52'3 7.0
2017-Nov-10 14:31N 38°31' W 008°53'3 6.7
2017-Nov-10 14:00N 38°28' W 008°52'3 6.7
2017-Nov-10 13:30N 38°31' W 008°53'3 6.7
2017-Nov-10 13:00N 38°28' W 008°52'3 6.7
2017-Nov-10 12:30N 38°31' W 008°53'3 6.5
2017-Nov-10 11:59N 38°28' W 008°52'3 7.1
2017-Nov-10 11:30N 38°31' W 008°53'3 6.7
2017-Nov-10 11:00N 38°28' W 008°52'3 6.8
2017-Nov-10 10:30N 38°31' W 008°53'3 6.3
2017-Nov-10 09:58N 38°28' W 008°52'3 7.3
2017-Nov-10 09:31N 38°31' W 008°53'3 6.7
2017-Nov-10 09:00N 38°28' W 008°52'3 6.7
2017-Nov-10 08:30N 38°31' W 008°53'3 6.7
2017-Nov-10 08:00N 38°28' W 008°52'3 6.7
2017-Nov-10 07:30N 38°31' W 008°53'0 0.0
2017-Nov-10 07:00N 38°31' W 008°53'0 0.0
2017-Nov-10 06:30N 38°31' W 008°53'0 0.0
2017-Nov-10 06:00N 38°31' W 008°53'0 0.0
2017-Nov-10 05:30N 38°31' W 008°53'0 0.0
2017-Nov-10 05:00N 38°31' W 008°53'0 0.0
2017-Nov-10 04:30N 38°31' W 008°53'0 0.0
2017-Nov-10 04:00N 38°31' W 008°53'0 0.0
2017-Nov-10 03:30N 38°31' W 008°53'0 0.0
2017-Nov-10 03:00N 38°31' W 008°53'0 0.0
2017-Nov-10 02:30N 38°31' W 008°53'0 0.0
2017-Nov-10 02:00N 38°31' W 008°53'0 0.0
2017-Nov-10 01:30N 38°31' W 008°53'0 0.0
2017-Nov-10 01:00N 38°31' W 008°53'0 0.0
2017-Nov-10 00:30N 38°31' W 008°53'0 0.0
2017-Nov-10 00:00N 38°31' W 008°53'0 0.0
2017-Nov-09 23:30N 38°31' W 008°53'0 0.2
2017-Nov-09 23:00N 38°31' W 008°53'3 6.5
2017-Nov-09 22:30N 38°28' W 008°52'3 3.9
2017-Nov-09 21:39N 38°31' W 008°53'1 6.8
2017-Nov-09 21:30N 38°30' W 008°53'2 3.9
2017-Nov-09 21:00N 38°29' W 008°52'3 5.0
2017-Nov-09 20:26N 38°31' W 008°53'3 7.2
2017-Nov-09 19:58N 38°28' W 008°52'3 7.2
2017-Nov-09 19:30N 38°31' W 008°53'3 6.9
2017-Nov-09 19:00N 38°28' W 008°52'3 6.7
2017-Nov-09 18:30N 38°31' W 008°53'3 6.3
2017-Nov-09 17:58N 38°28' W 008°52'3 6.0
2017-Nov-09 17:24N 38°31' W 008°53'3 8.5
2017-Nov-09 17:00N 38°28' W 008°52'3 5.8
2017-Nov-09 16:25N 38°31' W 008°53'3 8.1
2017-Nov-09 16:00N 38°28' W 008°52'3 5.7
2017-Nov-09 15:25N 38°31' W 008°53'3 8.3
2017-Nov-09 15:00N 38°28' W 008°52'3 5.5
2017-Nov-09 14:23N 38°31' W 008°53'3 8.1
2017-Nov-09 13:59N 38°28' W 008°52'3 5.3
2017-Nov-09 13:21N 38°31' W 008°53'3 9.1
2017-Nov-09 12:59N 38°28' W 008°52'3 5.3
2017-Nov-09 12:22N 38°31' W 008°53'3 9.0
2017-Nov-09 11:59N 38°28' W 008°52'3 5.9
2017-Nov-09 11:25N 38°31' W 008°53'3 7.4
2017-Nov-09 10:59N 38°28' W 008°52'3 5.0
2017-Nov-09 10:21N 38°31' W 008°53'3 9.1
2017-Nov-09 10:00N 38°28' W 008°52'3 5.5
2017-Nov-09 09:23N 38°31' W 008°53'3 8.7
2017-Nov-09 09:00N 38°28' W 008°52'3 5.8
2017-Nov-09 08:26N 38°31' W 008°53'3 7.7
2017-Nov-09 07:59N 38°28' W 008°52'3 3.1
2017-Nov-09 06:53N 38°31' W 008°53'0 0.0
2017-Nov-09 06:28N 38°31' W 008°53'0 0.0
2017-Nov-09 05:41N 38°31' W 008°53'0 0.0
2017-Nov-09 04:56N 38°31' W 008°53'0 0.0
2017-Nov-09 03:03N 38°31' W 008°53'0 0.0
2017-Nov-09 00:52N 38°31' W 008°53'0 0.0
2017-Nov-09 00:31N 38°31' W 008°53'0 0.0
2017-Nov-08 23:04N 38°31' W 008°53'0 2.6
2017-Nov-08 23:00N 38°31' W 008°53'3 6.5
2017-Nov-08 22:30N 38°28' W 008°52'3 4.0
2017-Nov-08 21:40N 38°31' W 008°53'1 6.4
2017-Nov-08 21:29N 38°30' W 008°53'1 2.6
2017-Nov-08 20:56N 38°29' W 008°52'2 4.5
2017-Nov-08 20:25N 38°31' W 008°53'3 8.2
2017-Nov-08 20:00N 38°28' W 008°52'3 5.3
2017-Nov-08 19:23N 38°31' W 008°53'3 8.5
2017-Nov-08 18:59N 38°28' W 008°52'3 6.1
2017-Nov-08 18:26N 38°31' W 008°53'3 6.4
2017-Nov-08 17:55N 38°28' W 008°52'3 6.7
2017-Nov-08 17:24N 38°31' W 008°53'3 7.9
2017-Nov-08 16:59N 38°28' W 008°52'3 5.9
2017-Nov-08 16:24N 38°31' W 008°53'3 8.3
2017-Nov-08 16:00N 38°28' W 008°52'3 5.7
2017-Nov-08 15:24N 38°31' W 008°53'3 8.3
2017-Nov-08 15:00N 38°28' W 008°52'3 5.7
2017-Nov-08 14:25N 38°31' W 008°53'3 8.1
2017-Nov-08 14:00N 38°28' W 008°52'3 5.2
2017-Nov-08 13:23N 38°31' W 008°53'3 8.3
2017-Nov-08 13:00N 38°28' W 008°52'3 5.7
2017-Nov-08 12:24N 38°31' W 008°53'3 8.1
2017-Nov-08 11:59N 38°28' W 008°52'3 5.5
2017-Nov-08 11:23N 38°31' W 008°53'3 8.3
2017-Nov-08 10:59N 38°28' W 008°52'3 5.7
2017-Nov-08 10:24N 38°31' W 008°53'3 8.6
2017-Nov-08 10:01N 38°28' W 008°52'3 5.1
2017-Nov-08 09:22N 38°31' W 008°53'3 8.6
2017-Nov-08 08:59N 38°28' W 008°52'3 5.7
2017-Nov-08 08:24N 38°31' W 008°53'3 8.2
2017-Nov-08 07:59N 38°28' W 008°52'3 1.2
2017-Nov-08 05:18N 38°31' W 008°53'  
Track history (hours):
 
Tides and Currents Weather Stations Pressure Air Temp Water Temp Dewpoint Dewpoint Depression Visibility Wind Speed Wind Dir Waves Ship Positions

Rola Do Mar

Last reported at 2017-Nov-18 01:00 UTC. Time now 2017-Nov-18 01:09 UTC.
Position N 38°31' W 008°53'.

Length 70 m; draft 2.7 m.

Type: Passenger vessel. MMSI: 263701890.

Date/timePositionNaut miles runAvg speedWind from/ knotsBaromVisibWave heightAir tempDewpointWater temp
2017-Nov-18 01:00N 38°31' W 008°53'0 0.0
2017-Nov-18 00:27N 38°31' W 008°53'0 0.0
2017-Nov-18 00:00N 38°31' W 008°53'0 0.0
2017-Nov-17 23:30N 38°31' W 008°53'1 1.8
2017-Nov-17 23:00N 38°30' W 008°53'3 5.2
2017-Nov-17 22:30N 38°28' W 008°52'3 6.9
2017-Nov-17 22:00N 38°31' W 008°53'1 2.9
2017-Nov-17 21:30N 38°30' W 008°53'1 2.7
2017-Nov-17 21:00N 38°29' W 008°52'3 5.3
2017-Nov-17 20:30N 38°31' W 008°53'3 6.7
2017-Nov-17 20:00N 38°28' W 008°52'3 6.8
2017-Nov-17 19:30N 38°31' W 008°53'3 6.7
2017-Nov-17 19:00N 38°28' W 008°52'3 6.8
2017-Nov-17 18:30N 38°31' W 008°53'3 6.7
2017-Nov-17 18:00N 38°28' W 008°52'3 6.7
2017-Nov-17 17:30N 38°31' W 008°53'3 6.7
2017-Nov-17 17:00N 38°28' W 008°52'3 6.8
2017-Nov-17 16:30N 38°31' W 008°53'3 6.7
2017-Nov-17 16:00N 38°28' W 008°52'3 6.7
2017-Nov-17 15:30N 38°31' W 008°53'3 6.7
2017-Nov-17 15:00N 38°28' W 008°52'3 6.7
2017-Nov-17 14:30N 38°31' W 008°53'3 6.7
2017-Nov-17 14:00N 38°28' W 008°52'3 6.8
2017-Nov-17 13:30N 38°31' W 008°53'3 6.8
2017-Nov-17 13:00N 38°28' W 008°52'3 6.7
2017-Nov-17 12:30N 38°31' W 008°53'3 6.7
2017-Nov-17 12:00N 38°28' W 008°52'3 6.7
2017-Nov-17 11:30N 38°31' W 008°53'3 6.7
2017-Nov-17 11:00N 38°28' W 008°52'3 6.7
2017-Nov-17 10:30N 38°31' W 008°53'3 6.7
2017-Nov-17 10:00N 38°28' W 008°52'3 6.8
2017-Nov-17 09:30N 38°31' W 008°53'3 6.7
2017-Nov-17 09:00N 38°28' W 008°52'3 6.7
2017-Nov-17 08:30N 38°31' W 008°53'3 6.6
2017-Nov-17 08:00N 38°28' W 008°52'3 6.9
2017-Nov-17 07:30N 38°31' W 008°53'0 0.0
2017-Nov-17 07:00N 38°31' W 008°53'0 0.0
2017-Nov-17 06:30N 38°31' W 008°53'0 0.0
2017-Nov-17 06:00N 38°31' W 008°53'0 0.0
2017-Nov-17 05:30N 38°31' W 008°53'0 0.0
2017-Nov-17 05:00N 38°31' W 008°53'0 0.0
2017-Nov-17 04:30N 38°31' W 008°53'0 0.0
2017-Nov-17 04:00N 38°31' W 008°53'0 0.0
2017-Nov-17 03:30N 38°31' W 008°53'0 0.0
2017-Nov-17 03:00N 38°31' W 008°53'0 0.0
2017-Nov-17 02:30N 38°31' W 008°53'0 0.0
2017-Nov-17 02:00N 38°31' W 008°53'0 0.0
2017-Nov-17 01:24N 38°31' W 008°53'0 0.1
2017-Nov-17 01:00N 38°31' W 008°53'0 0.0
2017-Nov-17 00:27N 38°31' W 008°53'0 0.0
2017-Nov-16 23:54N 38°31' W 008°53'0 0.0
2017-Nov-16 23:27N 38°31' W 008°53'0 0.4
2017-Nov-16 23:00N 38°31' W 008°53'3 6.3
2017-Nov-16 22:30N 38°28' W 008°52'3 6.8
2017-Nov-16 22:00N 38°31' W 008°53'2 3.3
2017-Nov-16 21:31N 38°30' W 008°53'1 2.6
2017-Nov-16 21:00N 38°29' W 008°52'3 5.6
2017-Nov-16 20:30N 38°31' W 008°53'3 6.9
2017-Nov-16 20:00N 38°28' W 008°52'3 6.7
2017-Nov-16 19:30N 38°31' W 008°53'3 6.7
2017-Nov-16 19:00N 38°28' W 008°52'3 6.7
2017-Nov-16 18:30N 38°31' W 008°53'3 6.7
2017-Nov-16 18:00N 38°28' W 008°52'3 6.7
2017-Nov-16 17:30N 38°31' W 008°53'3 6.7
2017-Nov-16 17:00N 38°28' W 008°52'3 6.7
2017-Nov-16 16:30N 38°31' W 008°53'3 6.6
2017-Nov-16 16:00N 38°28' W 008°52'3 6.9
2017-Nov-16 15:30N 38°31' W 008°53'3 6.7
2017-Nov-16 15:00N 38°28' W 008°52'3 6.7
2017-Nov-16 14:30N 38°31' W 008°53'3 6.6
2017-Nov-16 14:00N 38°28' W 008°52'3 5.6
2017-Nov-16 13:24N 38°31' W 008°53'3 8.6
2017-Nov-16 13:00N 38°28' W 008°52'3 6.8
2017-Nov-16 12:31N 38°31' W 008°53'3 6.6
2017-Nov-16 12:00N 38°28' W 008°52'3 6.9
2017-Nov-16 11:30N 38°31' W 008°53'3 6.7
2017-Nov-16 11:00N 38°28' W 008°52'3 6.8
2017-Nov-16 10:30N 38°31' W 008°53'3 6.7
2017-Nov-16 10:00N 38°28' W 008°52'3 6.8
2017-Nov-16 09:30N 38°31' W 008°53'3 6.7
2017-Nov-16 09:00N 38°28' W 008°52'3 6.7
2017-Nov-16 08:30N 38°31' W 008°53'3 6.7
2017-Nov-16 08:00N 38°28' W 008°52'3 6.7
2017-Nov-16 07:30N 38°31' W 008°53'0 0.0
2017-Nov-16 07:00N 38°31' W 008°53'0 0.0
2017-Nov-16 06:28N 38°31' W 008°53'0 0.0
2017-Nov-16 05:58N 38°31' W 008°53'0 0.0
2017-Nov-16 05:28N 38°31' W 008°53'0 0.0
2017-Nov-16 04:58N 38°31' W 008°53'0 0.0
2017-Nov-16 04:28N 38°31' W 008°53'0 0.0
2017-Nov-16 03:58N 38°31' W 008°53'0 0.0
2017-Nov-16 03:28N 38°31' W 008°53'0 0.0
2017-Nov-16 02:58N 38°31' W 008°53'0 0.0
2017-Nov-16 02:28N 38°31' W 008°53'0 0.0
2017-Nov-16 01:58N 38°31' W 008°53'0 0.0
2017-Nov-16 01:28N 38°31' W 008°53'0 0.0
2017-Nov-16 00:58N 38°31' W 008°53'0 0.0
2017-Nov-16 00:28N 38°31' W 008°53'0 0.0
2017-Nov-15 23:52N 38°31' W 008°53'0 0.0
2017-Nov-15 23:28N 38°31' W 008°53'0 0.7
2017-Nov-15 23:00N 38°31' W 008°53'3 6.2
2017-Nov-15 22:30N 38°28' W 008°52'3 6.7
2017-Nov-15 22:00N 38°31' W 008°53'2 3.0
2017-Nov-15 21:30N 38°30' W 008°53'2 3.4
2017-Nov-15 21:00N 38°28' W 008°52'3 5.5
2017-Nov-15 20:27N 38°31' W 008°53'3 7.4
2017-Nov-15 20:00N 38°28' W 008°52'3 6.7
2017-Nov-15 19:30N 38°31' W 008°53'3 6.8
2017-Nov-15 19:00N 38°28' W 008°52'3 6.8
2017-Nov-15 18:30N 38°31' W 008°53'3 6.7
2017-Nov-15 18:00N 38°28' W 008°52'3 6.8
2017-Nov-15 17:30N 38°31' W 008°53'3 6.7
2017-Nov-15 17:00N 38°28' W 008°52'3 6.8
2017-Nov-15 16:30N 38°31' W 008°53'3 6.1
2017-Nov-15 15:57N 38°28' W 008°52'3 7.6
2017-Nov-15 15:30N 38°31' W 008°53'3 6.0
2017-Nov-15 14:57N 38°28' W 008°52'3 7.5
2017-Nov-15 14:30N 38°31' W 008°53'3 5.8
2017-Nov-15 13:55N 38°28' W 008°52'3 7.9
2017-Nov-15 13:30N 38°31' W 008°53'3 6.6
2017-Nov-15 12:59N 38°28' W 008°52'3 7.0
2017-Nov-15 12:30N 38°31' W 008°53'3 6.7
2017-Nov-15 12:00N 38°28' W 008°52'3 6.8
2017-Nov-15 11:30N 38°31' W 008°53'3 6.7
2017-Nov-15 11:00N 38°28' W 008°52'3 6.8
2017-Nov-15 10:30N 38°31' W 008°53'3 6.7
2017-Nov-15 10:00N 38°28' W 008°52'3 6.7
2017-Nov-15 09:30N 38°31' W 008°53'3 6.7
2017-Nov-15 09:00N 38°28' W 008°52'3 6.8
2017-Nov-15 08:30N 38°31' W 008°53'3 6.7
2017-Nov-15 08:00N 38°28' W 008°52'3 6.7
2017-Nov-15 07:30N 38°31' W 008°53'0 0.0
2017-Nov-15 06:59N 38°31' W 008°53'0 0.0
2017-Nov-15 06:29N 38°31' W 008°53'0 0.0
2017-Nov-15 05:59N 38°31' W 008°53'0 0.0
2017-Nov-15 05:26N 38°31' W 008°53'0 0.0
2017-Nov-15 04:59N 38°31' W 008°53'0 0.0
2017-Nov-15 04:29N 38°31' W 008°53'0 0.0
2017-Nov-15 03:59N 38°31' W 008°53'0 0.0
2017-Nov-15 03:29N 38°31' W 008°53'0 0.0
2017-Nov-15 02:59N 38°31' W 008°53'0 0.0
2017-Nov-15 02:29N 38°31' W 008°53'0 0.0
2017-Nov-15 01:59N 38°31' W 008°53'0 0.0
2017-Nov-15 01:29N 38°31' W 008°53'0 0.0
2017-Nov-15 00:59N 38°31' W 008°53'0 0.0
2017-Nov-15 00:29N 38°31' W 008°53'0 0.0
2017-Nov-14 23:59N 38°31' W 008°53'0 0.0
2017-Nov-14 23:29N 38°31' W 008°53'1 1.5
2017-Nov-14 23:00N 38°31' W 008°53'3 5.5
2017-Nov-14 22:30N 38°28' W 008°52'3 6.7
2017-Nov-14 22:00N 38°31' W 008°53'1 2.9
2017-Nov-14 21:31N 38°30' W 008°53'2 3.4
2017-Nov-14 21:00N 38°28' W 008°52'3 6.0
2017-Nov-14 20:30N 38°31' W 008°53'3 6.6
2017-Nov-14 20:00N 38°28' W 008°52'3 6.9
2017-Nov-14 19:30N 38°31' W 008°53'3 6.5
2017-Nov-14 18:59N 38°28' W 008°52'3 7.0
2017-Nov-14 18:30N 38°31' W 008°53'3 6.7
2017-Nov-14 18:00N 38°28' W 008°52'3 6.7
2017-Nov-14 17:31N 38°31' W 008°53'3 6.6
2017-Nov-14 17:00N 38°28' W 008°52'3 5.2
2017-Nov-14 16:21N 38°31' W 008°53'3 9.4
2017-Nov-14 16:00N 38°28' W 008°52'3 5.6
2017-Nov-14 15:24N 38°31' W 008°53'3 8.3
2017-Nov-14 14:59N 38°28' W 008°52'3 6.5
2017-Nov-14 14:28N 38°31' W 008°53'3 7.1
2017-Nov-14 13:59N 38°28' W 008°52'3 7.0
2017-Nov-14 13:30N 38°31' W 008°53'3 6.2
2017-Nov-14 12:58N 38°28' W 008°52'3 7.4
2017-Nov-14 12:30N 38°31' W 008°53'3 6.6
2017-Nov-14 12:00N 38°28' W 008°52'3 6.9
2017-Nov-14 11:30N 38°31' W 008°53'3 6.6
2017-Nov-14 11:00N 38°28' W 008°52'3 6.9
2017-Nov-14 10:30N 38°31' W 008°53'3 6.6
2017-Nov-14 10:00N 38°28' W 008°52'3 6.9
2017-Nov-14 09:30N 38°31' W 008°53'3 6.6
2017-Nov-14 09:00N 38°28' W 008°52'3 6.9
2017-Nov-14 08:30N 38°31' W 008°53'3 6.6
2017-Nov-14 08:00N 38°28' W 008°52'3 6.8
2017-Nov-14 07:30N 38°31' W 008°53'0 0.0
2017-Nov-14 06:58N 38°31' W 008°53'0 0.0
2017-Nov-14 06:28N 38°31' W 008°53'0 0.0
2017-Nov-14 05:58N 38°31' W 008°53'0 0.0
2017-Nov-14 05:28N 38°31' W 008°53'0 0.0
2017-Nov-14 04:58N 38°31' W 008°53'0 0.0
2017-Nov-14 04:28N 38°31' W 008°53'0 0.0
2017-Nov-14 03:58N 38°31' W 008°53'0 0.0
2017-Nov-14 03:28N 38°31' W 008°53'0 0.0
2017-Nov-14 02:58N 38°31' W 008°53'0 0.0
2017-Nov-14 02:28N 38°31' W 008°53'0 0.0
2017-Nov-14 01:58N 38°31' W 008°53'0 0.0
2017-Nov-14 01:28N 38°31' W 008°53'0 0.0
2017-Nov-14 00:58N 38°31' W 008°53'0 0.0
2017-Nov-14 00:25N 38°31' W 008°53'0 0.0
2017-Nov-13 23:58N 38°31' W 008°53'0 0.0
2017-Nov-13 23:28N 38°31' W 008°53'1 1.2
2017-Nov-13 23:00N 38°31' W 008°53'3 5.8
2017-Nov-13 22:30N 38°28' W 008°52'3 6.7
2017-Nov-13 22:00N 38°31' W 008°53'0 0.0
2017-Nov-12 23:03N 38°31' W 008°53'1 7.9
2017-Nov-12 22:59N 38°31' W 008°53'3 5.4
2017-Nov-12 22:27N 38°28' W 008°52'3 6.8
2017-Nov-12 21:57N 38°31' W 008°53'1 3.3
2017-Nov-12 21:30N 38°30' W 008°53'2 3.8
2017-Nov-12 21:00N 38°28' W 008°52'3 6.1
2017-Nov-12 20:29N 38°31' W 008°53'3 7.1
2017-Nov-12 20:00N 38°28' W 008°52'3 6.5
2017-Nov-12 19:29N 38°31' W 008°53'3 6.9
2017-Nov-12 19:00N 38°28' W 008°52'3 5.6
2017-Nov-12 18:27N 38°31' W 008°53'3 6.7
2017-Nov-12 17:59N 38°28' W 008°52'3 6.9
2017-Nov-12 17:29N 38°31' W 008°53'3 6.9
2017-Nov-12 17:00N 38°28' W 008°52'3 6.8
2017-Nov-12 16:30N 38°31' W 008°53'3 6.7
2017-Nov-12 16:00N 38°28' W 008°52'3 6.4
2017-Nov-12 15:29N 38°31' W 008°53'3 7.0
2017-Nov-12 15:00N 38°28' W 008°52'3 5.2
2017-Nov-12 14:21N 38°31' W 008°53'3 9.5
2017-Nov-12 14:00N 38°28' W 008°52'3 5.3
2017-Nov-12 13:22N 38°31' W 008°53'3 8.7
2017-Nov-12 12:59N 38°28' W 008°52'3 6.7
2017-Nov-12 12:29N 38°31' W 008°53'3 6.9
2017-Nov-12 12:00N 38°28' W 008°52'3 5.3
2017-Nov-12 11:22N 38°31' W 008°53'3 9.3
2017-Nov-12 11:00N 38°28' W 008°52'3 5.0
2017-Nov-12 10:21N 38°31' W 008°53'3 9.3
2017-Nov-12 10:00N 38°28' W 008°52'3 4.8
2017-Nov-12 09:21N 38°31' W 008°53'3 9.0
2017-Nov-12 09:00N 38°28' W 008°52'3 5.6
2017-Nov-12 08:24N 38°31' W 008°53'3 6.0
2017-Nov-12 07:50N 38°28' W 008°52'3 9.1
2017-Nov-12 07:28N 38°31' W 008°53'0 0.0
2017-Nov-12 06:58N 38°31' W 008°53'0 0.0
2017-Nov-12 06:28N 38°31' W 008°53'0 0.0
2017-Nov-12 05:58N 38°31' W 008°53'0 0.0
2017-Nov-12 05:28N 38°31' W 008°53'0 0.0
2017-Nov-12 04:58N 38°31' W 008°53'0 0.0
2017-Nov-12 04:28N 38°31' W 008°53'0 0.0
2017-Nov-12 03:58N 38°31' W 008°53'0 0.0
2017-Nov-12 03:28N 38°31' W 008°53'0 0.0
2017-Nov-12 02:58N 38°31' W 008°53'0 0.0
2017-Nov-12 02:28N 38°31' W 008°53'0 0.0
2017-Nov-12 01:58N 38°31' W 008°53'0 0.0
2017-Nov-12 01:28N 38°31' W 008°53'0 0.0
2017-Nov-12 00:49N 38°31' W 008°53'0 0.0
2017-Nov-12 00:28N 38°31' W 008°53'0 0.0
2017-Nov-11 23:58N 38°31' W 008°53'0 0.0
2017-Nov-11 23:28N 38°31' W 008°53'0 0.0
2017-Nov-11 23:00N 38°31' W 008°53'3 6.7
2017-Nov-11 22:30N 38°28' W 008°52'3 6.7
2017-Nov-11 22:00N 38°31' W 008°53'1 2.2
2017-Nov-11 21:30N 38°30' W 008°53'2 4.6
2017-Nov-11 21:00N 38°28' W 008°52'3 6.5
2017-Nov-11 20:30N 38°31' W 008°53'3 6.7
2017-Nov-11 20:00N 38°28' W 008°52'3 6.7
2017-Nov-11 19:30N 38°31' W 008°53'3 6.7
2017-Nov-11 19:00N 38°28' W 008°52'3 6.7
2017-Nov-11 18:30N 38°31' W 008°53'3 6.7
2017-Nov-11 18:00N 38°28' W 008°52'3 6.7
2017-Nov-11 17:30N 38°31' W 008°53'3 6.7
2017-Nov-11 17:00N 38°28' W 008°52'3 6.7
2017-Nov-11 16:30N 38°31' W 008°53'3 6.8
2017-Nov-11 16:00N 38°28' W 008°52'3 6.8
2017-Nov-11 15:31N 38°31' W 008°53'3 6.7
2017-Nov-11 15:00N 38°28' W 008°52'3 6.7
2017-Nov-11 14:30N 38°31' W 008°53'3 6.6
2017-Nov-11 14:00N 38°28' W 008°52'3 6.9
2017-Nov-11 13:30N 38°31' W 008°53'3 6.5
2017-Nov-11 12:59N 38°28' W 008°52'3 7.0
2017-Nov-11 12:30N 38°31' W 008°53'3 6.5
2017-Nov-11 11:59N 38°28' W 008°52'3 7.0
2017-Nov-11 11:30N 38°31' W 008°53'3 6.7
2017-Nov-11 11:00N 38°28' W 008°52'3 6.8
2017-Nov-11 10:30N 38°31' W 008°53'3 6.8
2017-Nov-11 10:00N 38°28' W 008°52'3 6.7
2017-Nov-11 09:30N 38°31' W 008°53'3 6.7
2017-Nov-11 09:00N 38°28' W 008°52'3 6.7
2017-Nov-11 08:30N 38°31' W 008°53'3 6.7
2017-Nov-11 08:00N 38°28' W 008°52'3 6.8
2017-Nov-11 07:31N 38°31' W 008°53'0 0.0
2017-Nov-11 07:00N 38°31' W 008°53'0 0.0
2017-Nov-11 06:30N 38°31' W 008°53'0 0.0
2017-Nov-11 06:01N 38°31' W 008°53'0 0.0
2017-Nov-11 05:30N 38°31' W 008°53'0 0.0
2017-Nov-11 05:00N 38°31' W 008°53'0 0.0
2017-Nov-11 04:31N 38°31' W 008°53'0 0.0
2017-Nov-11 04:01N 38°31' W 008°53'0 0.0
2017-Nov-11 03:31N 38°31' W 008°53'0 0.0
2017-Nov-11 03:00N 38°31' W 008°53'0 0.0
2017-Nov-11 02:30N 38°31' W 008°53'0 0.0
2017-Nov-11 02:01N 38°31' W 008°53'0 0.0
2017-Nov-11 01:30N 38°31' W 008°53'0 0.0
2017-Nov-11 00:59N 38°31' W 008°53'0 0.0
2017-Nov-11 00:31N 38°31' W 008°53'0 0.0
2017-Nov-11 00:00N 38°31' W 008°53'0 0.0
2017-Nov-10 23:30N 38°31' W 008°53'0 0.2
2017-Nov-10 23:01N 38°31' W 008°53'3 6.4
2017-Nov-10 22:30N 38°28' W 008°52'3 6.7
2017-Nov-10 22:01N 38°31' W 008°53'1 2.0
2017-Nov-10 21:31N 38°30' W 008°53'2 4.8
2017-Nov-10 21:00N 38°28' W 008°52'3 6.1
2017-Nov-10 20:29N 38°31' W 008°53'3 7.1
2017-Nov-10 20:01N 38°28' W 008°52'3 6.7
2017-Nov-10 19:30N 38°31' W 008°53'3 6.7
2017-Nov-10 19:00N 38°28' W 008°52'3 6.5
2017-Nov-10 18:29N 38°31' W 008°53'3 6.6
2017-Nov-10 17:59N 38°28' W 008°52'3 7.2
2017-Nov-10 17:31N 38°31' W 008°53'3 6.3
2017-Nov-10 16:59N 38°28' W 008°52'3 7.2
2017-Nov-10 16:30N 38°31' W 008°53'3 6.7
2017-Nov-10 16:00N 38°28' W 008°52'3 6.8
2017-Nov-10 15:30N 38°31' W 008°53'3 6.6
2017-Nov-10 14:59N 38°28' W 008°52'3 7.0
2017-Nov-10 14:31N 38°31' W 008°53'3 6.7
2017-Nov-10 14:00N 38°28' W 008°52'3 6.7
2017-Nov-10 13:30N 38°31' W 008°53'3 6.7
2017-Nov-10 13:00N 38°28' W 008°52'3 6.7
2017-Nov-10 12:30N 38°31' W 008°53'3 6.5
2017-Nov-10 11:59N 38°28' W 008°52'3 7.1
2017-Nov-10 11:30N 38°31' W 008°53'3 6.7
2017-Nov-10 11:00N 38°28' W 008°52'3 6.8
2017-Nov-10 10:30N 38°31' W 008°53'3 6.3
2017-Nov-10 09:58N 38°28' W 008°52'3 7.3
2017-Nov-10 09:31N 38°31' W 008°53'3 6.7
2017-Nov-10 09:00N 38°28' W 008°52'3 6.7
2017-Nov-10 08:30N 38°31' W 008°53'3 6.7
2017-Nov-10 08:00N 38°28' W 008°52'3 6.7
2017-Nov-10 07:30N 38°31' W 008°53'0 0.0
2017-Nov-10 07:00N 38°31' W 008°53'0 0.0
2017-Nov-10 06:30N 38°31' W 008°53'0 0.0
2017-Nov-10 06:00N 38°31' W 008°53'0 0.0
2017-Nov-10 05:30N 38°31' W 008°53'0 0.0
2017-Nov-10 05:00N 38°31' W 008°53'0 0.0
2017-Nov-10 04:30N 38°31' W 008°53'0 0.0
2017-Nov-10 04:00N 38°31' W 008°53'0 0.0
2017-Nov-10 03:30N 38°31' W 008°53'0 0.0
2017-Nov-10 03:00N 38°31' W 008°53'0 0.0
2017-Nov-10 02:30N 38°31' W 008°53'0 0.0
2017-Nov-10 02:00N 38°31' W 008°53'0 0.0
2017-Nov-10 01:30N 38°31' W 008°53'0 0.0
2017-Nov-10 01:00N 38°31' W 008°53'0 0.0
2017-Nov-10 00:30N 38°31' W 008°53'0 0.0
2017-Nov-10 00:00N 38°31' W 008°53'0 0.0
2017-Nov-09 23:30N 38°31' W 008°53'0 0.2
2017-Nov-09 23:00N 38°31' W 008°53'3 6.5
2017-Nov-09 22:30N 38°28' W 008°52'3 3.9
2017-Nov-09 21:39N 38°31' W 008°53'1 6.8
2017-Nov-09 21:30N 38°30' W 008°53'2 3.9
2017-Nov-09 21:00N 38°29' W 008°52'3 5.0
2017-Nov-09 20:26N 38°31' W 008°53'3 7.2
2017-Nov-09 19:58N 38°28' W 008°52'3 7.2
2017-Nov-09 19:30N 38°31' W 008°53'3 6.9
2017-Nov-09 19:00N 38°28' W 008°52'3 6.7
2017-Nov-09 18:30N 38°31' W 008°53'3 6.3
2017-Nov-09 17:58N 38°28' W 008°52'3 6.0
2017-Nov-09 17:24N 38°31' W 008°53'3 8.5
2017-Nov-09 17:00N 38°28' W 008°52'3 5.8
2017-Nov-09 16:25N 38°31' W 008°53'3 8.1
2017-Nov-09 16:00N 38°28' W 008°52'3 5.7
2017-Nov-09 15:25N 38°31' W 008°53'3 8.3
2017-Nov-09 15:00N 38°28' W 008°52'3 5.5
2017-Nov-09 14:23N 38°31' W 008°53'3 8.1
2017-Nov-09 13:59N 38°28' W 008°52'3 5.3
2017-Nov-09 13:21N 38°31' W 008°53'3 9.1
2017-Nov-09 12:59N 38°28' W 008°52'3 5.3
2017-Nov-09 12:22N 38°31' W 008°53'3 9.0
2017-Nov-09 11:59N 38°28' W 008°52'3 5.9
2017-Nov-09 11:25N 38°31' W 008°53'3 7.4
2017-Nov-09 10:59N 38°28' W 008°52'3 5.0
2017-Nov-09 10:21N 38°31' W 008°53'3 9.1
2017-Nov-09 10:00N 38°28' W 008°52'3 5.5
2017-Nov-09 09:23N 38°31' W 008°53'3 8.7
2017-Nov-09 09:00N 38°28' W 008°52'3 5.8
2017-Nov-09 08:26N 38°31' W 008°53'3 7.7
2017-Nov-09 07:59N 38°28' W 008°52'3 3.1
2017-Nov-09 06:53N 38°31' W 008°53'0 0.0
2017-Nov-09 06:28N 38°31' W 008°53'0 0.0
2017-Nov-09 05:41N 38°31' W 008°53'0 0.0
2017-Nov-09 04:56N 38°31' W 008°53'0 0.0
2017-Nov-09 03:03N 38°31' W 008°53'0 0.0
2017-Nov-09 00:52N 38°31' W 008°53'0 0.0
2017-Nov-09 00:31N 38°31' W 008°53'0 0.0
2017-Nov-08 23:04N 38°31' W 008°53'0 2.6
2017-Nov-08 23:00N 38°31' W 008°53'3 6.5
2017-Nov-08 22:30N 38°28' W 008°52'3 4.0
2017-Nov-08 21:40N 38°31' W 008°53'1 6.4
2017-Nov-08 21:29N 38°30' W 008°53'1 2.6
2017-Nov-08 20:56N 38°29' W 008°52'2 4.5
2017-Nov-08 20:25N 38°31' W 008°53'3 8.2
2017-Nov-08 20:00N 38°28' W 008°52'3 5.3
2017-Nov-08 19:23N 38°31' W 008°53'3 8.5
2017-Nov-08 18:59N 38°28' W 008°52'3 6.1
2017-Nov-08 18:26N 38°31' W 008°53'3 6.4
2017-Nov-08 17:55N 38°28' W 008°52'3 6.7
2017-Nov-08 17:24N 38°31' W 008°53'3 7.9
2017-Nov-08 16:59N 38°28' W 008°52'3 5.9
2017-Nov-08 16:24N 38°31' W 008°53'3 8.3
2017-Nov-08 16:00N 38°28' W 008°52'3 5.7
2017-Nov-08 15:24N 38°31' W 008°53'3 8.3
2017-Nov-08 15:00N 38°28' W 008°52'3 5.7
2017-Nov-08 14:25N 38°31' W 008°53'3 8.1
2017-Nov-08 14:00N 38°28' W 008°52'3 5.2
2017-Nov-08 13:23N 38°31' W 008°53'3 8.3
2017-Nov-08 13:00N 38°28' W 008°52'3 5.7
2017-Nov-08 12:24N 38°31' W 008°53'3 8.1
2017-Nov-08 11:59N 38°28' W 008°52'3 5.5
2017-Nov-08 11:23N 38°31' W 008°53'3 8.3
2017-Nov-08 10:59N 38°28' W 008°52'3 5.7
2017-Nov-08 10:24N 38°31' W 008°53'3 8.6
2017-Nov-08 10:01N 38°28' W 008°52'3 5.1
2017-Nov-08 09:22N 38°31' W 008°53'3 8.6
2017-Nov-08 08:59N 38°28' W 008°52'3 5.7
2017-Nov-08 08:24N 38°31' W 008°53'3 8.2
2017-Nov-08 07:59N 38°28' W 008°52'3 1.2
2017-Nov-08 05:18N 38°31' W 008°53'  

Dump ship's entire track history